Time;durP1;ratioP1;P1;durP2;ratioP2;P2;SDS_P1;SDS_P2;PMS_P1;PMS_P2;Temp;Humidity;BMP_temperature;BMP_pressure;BME280_temperature;BME280_humidity;BME280_pressure;Samples;Min_cycle;Max_cycle;Signal;HPM_P1;HPM_P2
2022/06/20 00:02:14;;;;;;;1.55;0.45;;;;;;;14.05;85.83;101368.94;5051469;28;20017;-71
2022/06/20 00:04:39;;;;;;;3.05;1.13;;;;;;;14.01;86.36;101388.81;5052439;28;20440;-71
2022/06/20 00:07:05;;;;;;;2.72;0.50;;;;;;;13.97;85.45;101391.75;5034291;28;20021;-71
2022/06/20 00:09:30;;;;;;;1.42;0.20;;;;;;;13.96;84.64;101384.81;5034779;28;20036;-71
2022/06/20 00:11:56;;;;;;;1.23;0.60;;;;;;;13.93;83.69;101371.03;5052483;28;20029;-71
2022/06/20 00:14:21;;;;;;;2.33;0.70;;;;;;;13.87;84.04;101376.94;5032164;28;20104;-70
2022/06/20 00:16:47;;;;;;;1.35;0.77;;;;;;;13.95;84.21;101400.88;5035035;28;20500;-70
2022/06/20 00:19:14;;;;;;;2.60;0.65;;;;;;;13.96;84.29;101370.72;5034492;28;20163;-70
2022/06/20 00:21:41;;;;;;;1.27;0.43;;;;;;;13.96;83.65;101358.28;5033059;28;20047;-70
2022/06/20 00:24:07;;;;;;;0.93;0.40;;;;;;;13.96;83.57;101355.63;5033478;28;20036;-71
2022/06/20 00:26:34;;;;;;;1.88;0.30;;;;;;;13.92;84.27;101367.53;5034199;28;20032;-71
2022/06/20 00:29:02;;;;;;;2.30;0.40;;;;;;;13.92;83.96;101364.88;5052652;28;20097;-71
2022/06/20 00:31:27;;;;;;;3.85;0.80;;;;;;;13.91;83.98;101362.38;5052003;28;20036;-71
2022/06/20 00:33:53;;;;;;;2.03;0.60;;;;;;;13.88;83.77;101360.88;5052043;28;20606;-71
2022/06/20 00:36:18;;;;;;;5.47;1.10;;;;;;;13.84;84.19;101367.50;5032557;28;20119;-71
2022/06/20 00:38:47;;;;;;;2.22;0.30;;;;;;;13.90;83.00;101377.47;5052235;28;20032;-71
2022/06/20 00:41:20;;;;;;;0.60;0.25;;;;;;;13.87;82.59;101366.34;5052714;28;20132;-71
2022/06/20 00:43:48;;;;;;;2.70;0.20;;;;;;;13.92;82.89;101364.88;5050247;28;20025;-71
2022/06/20 00:46:35;;;;;;;1.42;0.50;;;;;;;13.89;82.94;101351.94;5050579;28;20021;-70
2022/06/20 00:49:05;;;;;;;1.73;0.77;;;;;;;13.86;82.72;101344.28;5050625;28;20107;-71
2022/06/20 00:51:37;;;;;;;1.90;1.02;;;;;;;13.82;82.89;101342.94;5051498;28;20028;-71
2022/06/20 00:54:11;;;;;;;0.40;0.22;;;;;;;13.74;82.21;101334.94;5051786;28;20103;-71
2022/06/20 00:57:01;;;;;;;0.70;0.40;;;;;;;13.74;82.58;101345.56;5047668;28;20055;-71
2022/06/20 00:59:41;;;;;;;1.48;0.70;;;;;;;13.68;81.88;101351.50;5051569;28;20032;-71
2022/06/20 01:02:07;;;;;;;3.83;0.30;;;;;;;13.63;82.44;101354.63;5050455;28;20419;-71
2022/06/20 01:04:40;;;;;;;1.55;0.38;;;;;;;13.62;82.45;101368.88;5051439;28;20053;-71
2022/06/20 01:07:16;;;;;;;2.25;0.77;;;;;;;13.57;82.58;101372.00;5033299;28;20147;-71
2022/06/20 01:09:46;;;;;;;1.27;0.60;;;;;;;13.55;83.30;101379.28;5032054;28;20043;-71
2022/06/20 01:12:16;;;;;;;0.70;0.35;;;;;;;13.50;83.13;101380.72;5051121;28;20036;-71
2022/06/20 01:14:41;;;;;;;1.90;0.87;;;;;;;13.44;83.97;101392.81;5051213;28;20035;-71
2022/06/20 01:17:27;;;;;;;1.60;0.45;;;;;;;13.37;83.92;101397.06;5050483;28;20550;-71
2022/06/20 01:20:00;;;;;;;1.42;1.33;;;;;;;13.28;85.34;101400.59;5051354;28;20059;-71
2022/06/20 01:22:46;;;;;;;3.17;1.10;;;;;;;13.21;85.37;101396.91;5051275;28;20096;-71
2022/06/20 01:25:23;;;;;;;0.40;0.30;;;;;;;13.17;84.59;101388.41;5050161;28;20029;-71
2022/06/20 01:27:51;;;;;;;1.00;0.50;;;;;;;13.07;85.42;101383.22;5050170;28;20067;-71
2022/06/20 01:30:18;;;;;;;2.35;0.32;;;;;;;13.05;85.83;101387.84;5033852;28;20021;-71
2022/06/20 01:32:44;;;;;;;1.63;0.90;;;;;;;12.90;86.01;101378.75;5050834;28;20120;-71
2022/06/20 01:37:23;;;;;;;1.00;0.50;;;;;;;12.88;85.90;101376.25;5032182;28;20070;-71
2022/06/20 01:38:01;;;;;;;1.58;0.82;;;;;;;12.85;86.22;101387.16;5048966;28;20035;-71
2022/06/20 01:40:27;;;;;;;0.52;0.40;;;;;;;12.81;87.11;101383.16;5050946;28;20163;-71
2022/06/20 01:42:53;;;;;;;0.95;0.82;;;;;;;12.79;85.74;101382.47;5050562;28;20113;-72
2022/06/20 01:48:06;;;;;;;0.93;0.40;;;;;;;12.64;85.81;101368.91;5049985;28;20092;-71
2022/06/20 01:50:33;;;;;;;2.08;0.40;;;;;;;12.70;85.33;101386.03;5050255;28;20112;-71
2022/06/20 01:53:01;;;;;;;4.60;0.93;;;;;;;12.66;85.48;101382.03;5050604;28;20020;-71
2022/06/20 01:55:27;;;;;;;4.35;0.60;;;;;;;12.64;84.98;101368.09;5032164;28;20029;-71
2022/06/20 01:57:58;;;;;;;0.52;0.45;;;;;;;12.57;84.50;101373.16;5051695;28;20100;-72
2022/06/20 02:00:24;;;;;;;1.45;0.38;;;;;;;12.54;85.59;101360.22;5028965;28;20027;-71
2022/06/20 02:03:07;;;;;;;0.98;0.85;;;;;;;12.40;85.32;101344.84;5032804;28;20393;-71
2022/06/20 02:05:33;;;;;;;0.40;0.40;;;;;;;12.41;86.28;101360.59;5047856;28;20087;-71
2022/06/20 02:08:02;;;;;;;3.67;0.73;;;;;;;12.42;85.76;101375.47;5032393;28;20033;-71
2022/06/20 02:10:48;;;;;;;0.60;0.30;;;;;;;12.40;85.74;101379.25;5050873;28;20048;-70
2022/06/20 02:13:16;;;;;;;0.55;0.43;;;;;;;12.34;86.21;101357.69;5049877;28;20103;-71
2022/06/20 02:15:43;;;;;;;0.32;0.20;;;;;;;12.29;86.93;101343.25;5049679;28;20033;-71
2022/06/20 02:18:09;;;;;;;0.70;0.70;;;;;;;12.45;86.54;101369.06;5050151;28;20025;-72
2022/06/20 02:20:46;;;;;;;2.83;1.02;;;;;;;12.44;87.10;101372.69;5049010;28;20677;-72
2022/06/20 02:23:19;;;;;;;0.50;0.30;;;;;;;12.35;88.04;101371.78;5032316;28;20021;-72
2022/06/20 02:25:48;;;;;;;2.92;0.40;;;;;;;12.34;87.72;101372.75;5049047;28;20083;-72
2022/06/20 02:28:20;;;;;;;0.63;0.40;;;;;;;12.31;88.20;101381.00;5049990;28;20064;-72
2022/06/20 02:30:45;;;;;;;0.47;0.35;;;;;;;12.29;87.56;101385.59;5049914;28;20016;-72
2022/06/20 02:33:22;;;;;;;3.17;0.47;;;;;;;12.20;88.15;101366.16;5050028;28;20044;-72
2022/06/20 02:35:49;;;;;;;0.75;0.40;;;;;;;12.30;88.12;101377.50;5040069;28;20043;-72
2022/06/20 02:38:15;;;;;;;1.80;0.50;;;;;;;12.26;88.35;101365.56;5049829;28;20042;-72
2022/06/20 02:40:44;;;;;;;1.20;0.43;;;;;;;12.34;88.62;101378.84;5049872;28;20100;-72
2022/06/20 02:43:21;;;;;;;1.95;0.40;;;;;;;12.38;89.01;101383.88;5049586;28;20385;-72
2022/06/20 02:45:48;;;;;;;0.30;0.20;;;;;;;12.47;89.82;101382.97;5048188;28;20031;-71
2022/06/20 02:48:15;;;;;;;1.40;0.65;;;;;;;12.49;90.06;101386.31;5029720;28;20080;-71
2022/06/20 02:50:49;;;;;;;2.92;0.50;;;;;;;12.50;89.96;101399.41;5049112;28;20017;-71
2022/06/20 02:53:36;;;;;;;3.95;1.35;;;;;;;12.48;89.48;101397.88;5032344;28;20021;-71
2022/06/20 02:56:04;;;;;;;2.03;0.40;;;;;;;12.41;89.18;101400.31;5049290;28;20044;-71
2022/06/20 02:58:33;;;;;;;1.75;0.77;;;;;;;12.39;89.71;101396.97;5049418;28;20025;-71
2022/06/20 03:01:04;;;;;;;1.95;0.82;;;;;;;12.39;89.49;101407.56;5049095;28;20665;-71
2022/06/20 03:03:37;;;;;;;0.30;0.22;;;;;;;12.30;90.24;101411.06;5052518;28;20082;-71
2022/06/20 03:06:04;;;;;;;0.98;0.60;;;;;;;12.27;89.68;101411.38;5067826;28;20025;-71
2022/06/20 03:08:31;;;;;;;5.00;0.90;;;;;;;12.13;90.17;101380.97;5068109;28;20032;-70
2022/06/20 03:11:03;;;;;;;1.25;0.73;;;;;;;12.15;89.41;101386.94;5068069;28;20040;-70
2022/06/20 03:13:30;;;;;;;0.77;0.52;;;;;;;12.13;89.15;101383.59;5067647;28;20060;-70
2022/06/20 03:15:56;;;;;;;2.22;1.00;;;;;;;12.06;90.60;101383.34;5069245;28;20119;-70
2022/06/20 03:18:23;;;;;;;2.85;0.50;;;;;;;12.02;90.30;101386.41;5068686;28;20099;-70
2022/06/20 03:20:49;;;;;;;1.92;0.63;;;;;;;11.99;90.38;101376.13;5072543;28;20071;-71
2022/06/20 03:23:23;;;;;;;0.63;0.45;;;;;;;11.96;90.72;101371.16;5088858;28;20020;-71
2022/06/20 03:25:49;;;;;;;1.20;0.68;;;;;;;11.83;90.00;101363.50;5072130;28;20107;-71
2022/06/20 03:28:18;;;;;;;0.88;0.75;;;;;;;11.92;90.46;101379.34;5071242;28;20031;-71
2022/06/20 03:30:44;;;;;;;0.93;0.50;;;;;;;11.81;89.43;101368.13;5071848;28;20507;-71
2022/06/20 03:33:13;;;;;;;6.47;1.10;;;;;;;11.85;90.56;101378.25;5073931;28;20101;-71
2022/06/20 03:35:43;;;;;;;2.28;0.98;;;;;;;11.80;90.39;101391.09;5072631;28;20032;-71
2022/06/20 03:38:11;;;;;;;2.20;0.98;;;;;;;11.63;92.38;101389.19;5069831;28;20385;-70
2022/06/20 03:40:40;;;;;;;4.80;1.27;;;;;;;11.35;92.95;101399.69;5072937;28;20034;-70
2022/06/20 03:43:08;;;;;;;1.48;1.08;;;;;;;11.11;94.80;101379.00;5072291;28;20389;-71
2022/06/20 03:45:38;;;;;;;0.88;0.50;;;;;;;11.05;95.05;101380.38;5072551;28;20024;-71
2022/06/20 03:48:09;;;;;;;2.03;1.83;;;;;;;11.06;95.05;101387.34;5072045;28;20021;-71
2022/06/20 03:50:42;;;;;;;1.10;0.57;;;;;;;10.97;95.38;101376.75;5087082;28;20050;-71
2022/06/20 03:53:18;;;;;;;2.22;1.10;;;;;;;10.95;95.69;101392.72;5070620;28;20614;-70
2022/06/20 03:55:58;;;;;;;1.77;1.05;;;;;;;10.89;97.14;101396.78;5071373;28;20040;-70
2022/06/20 03:58:40;;;;;;;1.95;1.00;;;;;;;10.84;97.19;101377.88;5071032;28;20016;-71
2022/06/20 04:01:14;;;;;;;3.42;1.05;;;;;;;10.88;97.51;101381.06;5071959;28;20016;-71
2022/06/20 04:03:44;;;;;;;2.60;1.25;;;;;;;10.87;97.66;101385.53;5068390;28;20060;-71
2022/06/20 04:06:15;;;;;;;3.17;1.10;;;;;;;10.95;97.30;101376.06;5051815;28;20017;-71
2022/06/20 04:11:50;;;;;;;2.80;0.82;;;;;;;11.19;94.36;101388.84;5052505;28;20036;-73
2022/06/20 04:14:24;;;;;;;0.88;0.52;;;;;;;11.18;94.59;101380.09;5029185;28;20021;-71
2022/06/20 04:16:58;;;;;;;3.20;0.75;;;;;;;11.00;93.54;101335.06;5051547;28;20024;-71
2022/06/20 04:19:30;;;;;;;3.78;0.88;;;;;;;11.31;93.45;101375.34;5050661;28;20078;-71
2022/06/20 04:22:08;;;;;;;1.83;0.75;;;;;;;11.33;93.54;101372.56;5034161;28;20017;-72
2022/06/20 04:24:40;;;;;;;1.00;0.80;;;;;;;11.45;93.77;101381.16;5052257;28;20381;-71
2022/06/20 04:27:21;;;;;;;2.63;1.10;;;;;;;11.54;92.34;101380.31;5051680;28;20032;-71
2022/06/20 04:29:57;;;;;;;1.00;0.60;;;;;;;11.60;92.73;101373.59;5050223;28;20062;-71
2022/06/20 04:32:32;;;;;;;1.50;0.95;;;;;;;11.63;92.80;101360.13;5051620;28;20009;-71
2022/06/20 04:35:12;;;;;;;6.22;0.90;;;;;;;11.74;92.17;101359.94;5048005;28;20047;-71
2022/06/20 04:37:47;;;;;;;5.30;1.27;;;;;;;11.88;91.67;101362.13;5049657;28;20117;-72
2022/06/20 04:40:32;;;;;;;0.45;0.40;;;;;;;11.87;92.19;101339.28;5051743;28;20029;-71
2022/06/20 04:43:15;;;;;;;3.38;0.80;;;;;;;12.06;91.44;101348.09;5034035;28;20025;-71
2022/06/20 04:45:47;;;;;;;0.98;0.63;;;;;;;12.04;92.18;101332.41;5050392;28;20112;-71
2022/06/20 04:48:19;;;;;;;0.80;0.55;;;;;;;12.17;92.61;101345.25;5051052;28;20653;-71
2022/06/20 04:50:48;;;;;;;1.67;1.02;;;;;;;12.23;91.59;101338.53;5051057;28;20025;-71
2022/06/20 04:53:18;;;;;;;4.00;1.15;;;;;;;12.12;91.44;101326.34;5052656;28;20032;-72
2022/06/20 04:55:48;;;;;;;2.63;0.95;;;;;;;12.25;91.76;101341.88;5050923;28;20029;-72
2022/06/20 04:58:19;;;;;;;1.17;0.80;;;;;;;12.30;91.70;101329.88;5033219;28;20023;-71
2022/06/20 05:00:49;;;;;;;1.10;0.60;;;;;;;12.32;89.66;101324.41;5031873;28;20025;-71
2022/06/20 05:03:18;;;;;;;1.50;0.90;;;;;;;12.68;89.69;101333.22;5047833;28;20051;-71
2022/06/20 05:05:48;;;;;;;3.75;1.42;;;;;;;12.76;88.46;101308.63;5047501;28;20032;-71
2022/06/20 05:08:16;;;;;;;1.80;0.73;;;;;;;13.03;88.44;101325.38;5032392;28;20017;-71
2022/06/20 05:10:51;;;;;;;4.07;1.13;;;;;;;13.10;87.90;101316.66;5050613;28;20087;-71
2022/06/20 05:13:22;;;;;;;1.73;1.45;;;;;;;13.37;87.59;101322.84;5048824;28;20029;-71
2022/06/20 05:15:49;;;;;;;;;;;;;;;13.47;87.77;101333.31;5051023;28;20081;-70
2022/06/20 05:18:42;;;;;;;1.88;0.80;;;;;;;13.63;87.69;101321.97;5050441;28;19912;-68
2022/06/20 05:21:16;;;;;;;2.60;0.95;;;;;;;13.79;87.05;101325.53;5043511;28;20116;-71
2022/06/20 05:23:48;;;;;;;1.92;0.77;;;;;;;13.87;86.82;101322.09;5048292;28;20029;-71
2022/06/20 05:26:18;;;;;;;2.42;0.85;;;;;;;14.09;86.60;101333.94;5049092;28;20103;-69
2022/06/20 05:28:47;;;;;;;2.03;1.40;;;;;;;13.97;85.63;101330.72;5047855;28;20389;-70
2022/06/20 05:31:20;;;;;;;3.13;1.80;;;;;;;13.85;85.63;101341.78;5030240;28;20024;-69
2022/06/20 05:33:53;;;;;;;1.13;0.77;;;;;;;13.78;85.15;101347.75;5048041;28;20464;-70
2022/06/20 05:36:49;;;;;;;1.67;0.90;;;;;;;13.75;86.67;101342.75;5043402;28;20078;-70
2022/06/20 05:39:46;;;;;;;4.75;2.15;;;;;;;14.11;88.05;101355.84;5025595;28;20052;-69
2022/06/20 05:42:14;;;;;;;1.83;1.42;;;;;;;14.54;86.98;101321.25;5013657;28;20357;-70
2022/06/20 05:44:40;;;;;;;2.42;0.80;;;;;;;15.04;84.37;101349.53;5026309;28;20128;-70
2022/06/20 05:47:17;;;;;;;3.67;1.02;;;;;;;15.07;83.03;101358.97;5026338;28;20019;-70
2022/06/20 05:50:26;;;;;;;6.78;1.33;;;;;;;14.90;81.90;101359.00;5022369;28;20044;-71
2022/06/20 05:52:54;;;;;;;3.90;0.80;;;;;;;14.91;82.57;101350.03;5025892;28;20136;-72
2022/06/20 05:55:25;;;;;;;1.73;0.65;;;;;;;14.67;82.22;101303.03;5043875;28;20477;-70
2022/06/20 05:57:51;;;;;;;0.77;0.70;;;;;;;15.19;82.01;101373.59;5022718;28;20696;-69
2022/06/20 06:00:19;;;;;;;14.60;1.95;;;;;;;15.39;81.07;101368.75;5048156;28;20489;-70
2022/06/20 06:02:56;;;;;;;3.63;1.20;;;;;;;15.43;80.74;101354.13;5044241;28;20496;-70
2022/06/20 06:05:33;;;;;;;2.45;1.38;;;;;;;15.59;79.70;101374.53;5063766;28;20052;-70
2022/06/20 06:08:13;;;;;;;1.45;0.90;;;;;;;15.63;78.93;101363.41;5067638;28;20743;-70
2022/06/20 06:11:04;;;;;;;0.90;0.60;;;;;;;15.97;77.73;101369.47;5066380;28;20028;-70
2022/06/20 06:13:37;;;;;;;2.35;1.15;;;;;;;16.20;76.45;101377.50;5066805;28;20047;-69
2022/06/20 06:19:32;;;;;;;2.03;0.83;;;;;;;15.95;76.95;101374.97;5064407;28;20942;-70
2022/06/20 06:22:03;;;;;;;4.35;1.38;;;;;;;15.67;76.96;101377.19;5048916;28;20036;-69
2022/06/20 06:24:32;;;;;;;2.95;0.70;;;;;;;15.52;77.68;101386.88;5068345;28;20036;-70
2022/06/20 06:27:01;;;;;;;2.83;1.10;;;;;;;15.27;77.79;101380.75;5067724;28;20035;-69
2022/06/20 06:29:41;;;;;;;1.85;1.10;;;;;;;15.66;77.23;101388.00;5066553;28;20400;-70
2022/06/20 06:32:16;;;;;;;1.55;0.77;;;;;;;16.11;75.75;101387.38;5065528;28;20612;-69
2022/06/20 06:35:03;;;;;;;4.28;0.80;;;;;;;16.58;72.90;101399.78;5062714;28;20476;-70
2022/06/20 06:38:03;;;;;;;4.00;1.10;;;;;;;16.95;71.61;101402.75;5067103;28;20023;-70
2022/06/20 06:40:46;;;;;;;1.88;0.95;;;;;;;17.63;70.02;101391.09;5051332;28;20495;-70
2022/06/20 06:43:22;;;;;;;1.92;0.98;;;;;;;18.35;68.52;101384.25;5055272;28;20024;-70
2022/06/20 06:45:51;;;;;;;3.10;0.95;;;;;;;18.32;66.69;101400.66;5056991;28;20032;-69
2022/06/20 06:48:29;;;;;;;3.72;1.15;;;;;;;18.34;68.31;101403.97;5056321;28;20020;-71
2022/06/20 06:51:07;;;;;;;3.30;0.90;;;;;;;17.97;70.10;101407.63;5048862;28;20357;-71
2022/06/20 06:53:37;;;;;;;2.53;1.00;;;;;;;17.44;69.44;101405.81;5058170;28;20444;-71
2022/06/20 06:56:28;;;;;;;4.20;1.13;;;;;;;17.09;70.66;101423.28;5064911;28;20028;-70
2022/06/20 06:58:56;;;;;;;3.85;0.82;;;;;;;17.11;71.11;101428.44;5065290;28;20036;-70
2022/06/20 07:01:33;;;;;;;2.88;0.93;;;;;;;17.70;70.37;101420.56;5067169;28;20032;-70
2022/06/20 07:04:17;;;;;;;2.53;1.15;;;;;;;18.26;66.64;101422.78;5060107;28;20515;-70
2022/06/20 07:06:50;;;;;;;3.20;1.33;;;;;;;18.54;66.18;101422.91;5042731;28;20039;-71
2022/06/20 07:09:24;;;;;;;3.67;0.93;;;;;;;19.33;66.00;101438.91;5047032;28;20028;-70
2022/06/20 07:12:23;;;;;;;2.22;0.77;;;;;;;19.88;64.00;101427.59;5046352;28;20109;-71
2022/06/20 07:15:08;;;;;;;2.28;0.60;;;;;;;20.61;62.86;101427.13;5029741;28;20053;-71
2022/06/20 07:17:55;;;;;;;3.13;0.50;;;;;;;20.58;60.00;101430.19;5025881;28;20020;-71
2022/06/20 07:20:24;;;;;;;3.53;0.73;;;;;;;19.89;61.09;101423.91;5027663;28;20124;-70
2022/06/20 07:22:50;;;;;;;2.70;0.68;;;;;;;19.89;63.27;101429.25;5047568;28;20661;-70
2022/06/20 07:25:23;;;;;;;1.70;0.52;;;;;;;20.42;61.05;101409.91;5028995;28;20028;-70
2022/06/20 07:27:59;;;;;;;2.10;0.82;;;;;;;20.88;60.81;101434.19;5046779;28;20021;-70
2022/06/20 07:30:30;;;;;;;3.30;0.85;;;;;;;20.90;60.03;101442.03;5043860;28;20040;-70
2022/06/20 07:33:10;;;;;;;1.25;0.43;;;;;;;20.24;60.57;101418.50;5047145;28;20637;-70
2022/06/20 07:35:42;;;;;;;1.42;0.57;;;;;;;21.11;59.90;101438.34;5046355;28;20114;-70
2022/06/20 07:38:14;;;;;;;6.30;0.68;;;;;;;21.75;57.75;101442.25;5047972;28;20029;-70
2022/06/20 07:40:51;;;;;;;4.35;0.88;;;;;;;22.06;56.19;101441.56;5046273;28;20028;-70
2022/06/20 07:43:25;;;;;;;2.10;0.75;;;;;;;21.07;58.18;101453.19;5043737;28;20473;-71
2022/06/20 07:45:53;;;;;;;3.45;0.70;;;;;;;21.23;58.57;101451.97;5046680;28;20052;-71
2022/06/20 07:48:47;;;;;;;4.75;1.00;;;;;;;20.96;59.40;101450.09;5047151;28;20021;-71
2022/06/20 07:51:21;;;;;;;1.88;0.55;;;;;;;21.82;57.45;101451.16;5041413;28;20037;-71
2022/06/20 07:54:05;;;;;;;1.60;0.70;;;;;;;22.21;56.62;101437.78;5046755;28;20027;-71
2022/06/20 07:56:37;;;;;;;1.17;0.50;;;;;;;22.69;56.12;101437.38;5029609;28;20023;-71
2022/06/20 07:59:41;;;;;;;0.77;0.40;;;;;;;22.39;54.98;101440.66;5046975;28;20143;-71
2022/06/20 08:02:32;;;;;;;0.88;0.40;;;;;;;21.90;54.60;101439.34;4955122;28;20379;-71
2022/06/20 08:04:59;;;;;;;3.83;0.68;;;;;;;21.76;56.31;101436.69;4977662;28;20058;-71
2022/06/20 08:07:32;;;;;;;3.92;0.40;;;;;;;22.68;53.94;101433.03;4992485;28;20044;-71
2022/06/20 08:10:05;;;;;;;2.65;0.70;;;;;;;23.12;53.37;101448.28;4990204;28;20459;-71
2022/06/20 08:12:54;;;;;;;2.10;0.80;;;;;;;23.79;52.69;101429.69;4989169;28;20041;-71
2022/06/20 08:15:28;;;;;;;2.10;0.73;;;;;;;23.94;53.04;101406.94;4988609;28;20026;-71
2022/06/20 08:17:54;;;;;;;2.70;0.57;;;;;;;24.71;51.32;101431.47;4999640;28;20061;-71
2022/06/20 08:20:24;;;;;;;3.00;0.60;;;;;;;24.28;50.80;101443.25;4993699;28;20097;-71
2022/06/20 08:23:02;;;;;;;0.77;0.45;;;;;;;23.33;52.33;101447.09;4990742;28;20542;-71
2022/06/20 08:25:36;;;;;;;0.75;0.38;;;;;;;22.54;54.87;101449.25;4994200;28;20065;-71
2022/06/20 08:28:22;;;;;;;1.05;0.68;;;;;;;23.27;54.09;101457.94;4992133;28;20472;-71
2022/06/20 08:31:25;;;;;;;2.25;0.82;;;;;;;22.86;54.14;101468.09;4968828;28;20034;-71
2022/06/20 08:34:14;;;;;;;2.58;0.88;;;;;;;22.53;55.20;101458.34;5045115;28;20041;-71
2022/06/20 08:37:07;;;;;;;1.42;0.50;;;;;;;23.96;53.04;101456.88;5069613;28;20043;-71
2022/06/20 08:39:45;;;;;;;2.38;0.60;;;;;;;24.09;52.25;101460.50;5069691;28;20028;-70
2022/06/20 08:42:45;;;;;;;1.63;0.88;;;;;;;24.59;50.95;101468.41;5067573;28;20055;-70
2022/06/20 08:45:24;;;;;;;5.82;1.10;;;;;;;23.69;51.42;101471.63;5034271;28;20045;-70
2022/06/20 08:48:18;;;;;;;1.33;0.43;;;;;;;23.22;53.15;101466.66;5070019;28;20021;-71
2022/06/20 08:51:21;;;;;;;2.35;0.80;;;;;;;22.69;54.46;101473.19;5069462;28;20027;-70
2022/06/20 08:54:04;;;;;;;0.63;0.40;;;;;;;22.07;56.45;101475.47;5070011;28;20478;-71
2022/06/20 08:56:51;;;;;;;4.10;0.60;;;;;;;21.63;58.18;101478.88;5067919;28;20028;-71
2022/06/20 08:59:27;;;;;;;1.35;0.55;;;;;;;22.39;55.93;101481.00;5069660;28;20468;-71
2022/06/20 09:02:23;;;;;;;1.38;0.50;;;;;;;22.13;55.93;101480.00;5066132;28;20020;-71
2022/06/20 09:05:24;;;;;;;1.70;0.60;;;;;;;21.77;57.31;101492.09;5054920;28;20520;-71
2022/06/20 09:08:21;;;;;;;7.20;0.77;;;;;;;22.49;56.56;101486.72;5008576;28;20037;-71
2022/06/20 09:10:51;;;;;;;1.13;0.55;;;;;;;24.09;51.67;101482.06;4972892;28;20031;-71
2022/06/20 09:13:52;;;;;;;1.13;0.40;;;;;;;25.17;50.61;101489.38;4969390;28;20026;-71
2022/06/20 09:16:36;;;;;;;5.35;0.80;;;;;;;25.79;48.25;101504.38;4956410;28;20582;-71
2022/06/20 09:19:37;;;;;;;2.70;0.63;;;;;;;25.25;49.16;101501.72;4982494;28;20030;-71
2022/06/20 09:22:50;;;;;;;1.88;0.73;;;;;;;26.29;49.37;101500.34;4969911;28;20093;-70
2022/06/20 09:25:33;;;;;;;3.47;0.73;;;;;;;26.85;45.72;101502.28;4917098;29;20054;-71
2022/06/20 09:28:32;;;;;;;2.35;0.50;;;;;;;25.95;48.43;101500.16;4925293;29;20412;-71
2022/06/20 09:31:39;;;;;;;1.02;0.57;;;;;;;25.20;48.58;101507.00;4920228;29;20123;-71
2022/06/20 09:34:07;;;;;;;0.90;0.40;;;;;;;24.60;50.34;101497.84;4924269;29;20023;-71
2022/06/20 09:36:41;;;;;;;1.60;0.70;;;;;;;25.37;49.48;101493.63;4922298;29;20697;-71
2022/06/20 09:39:19;;;;;;;1.90;0.50;;;;;;;24.98;49.08;101499.41;4923721;29;20043;-71
2022/06/20 09:41:58;;;;;;;2.90;0.43;;;;;;;25.60;48.53;101499.06;4923486;29;20046;-71
2022/06/20 09:44:51;;;;;;;1.00;0.40;;;;;;;25.76;49.08;101492.16;4923819;29;20039;-71
2022/06/20 09:47:20;;;;;;;2.67;0.50;;;;;;;25.04;48.65;101492.25;4938774;28;20035;-71
2022/06/20 09:50:06;;;;;;;1.00;0.38;;;;;;;24.73;50.05;101498.72;4967910;28;20115;-71
2022/06/20 09:52:43;;;;;;;1.10;0.32;;;;;;;25.59;49.82;101502.03;4966798;28;20022;-71
2022/06/20 09:55:44;;;;;;;1.20;0.50;;;;;;;26.03;47.98;101505.19;4967294;28;20050;-71
2022/06/20 09:58:18;;;;;;;;;;;;;;;25.82;48.55;101504.69;4963086;28;20038;-71
2022/06/20 10:01:00;;;;;;;1.90;0.50;;;;;;;25.08;48.19;101493.44;4974562;28;19923;-71
2022/06/20 10:03:41;;;;;;;1.75;0.43;;;;;;;24.79;49.54;101492.41;5046764;28;20426;-71
2022/06/20 10:06:10;;;;;;;;;;;;;;;26.02;48.16;101498.13;5045572;28;20503;-71
2022/06/20 10:09:14;;;;;;;1.52;0.50;;;;;;;26.54;47.17;101498.13;5048547;28;19913;-71
2022/06/20 10:12:15;;;;;;;1.45;0.45;;;;;;;25.57;48.12;101504.13;4986518;28;20053;-71
2022/06/20 10:14:56;;;;;;;3.55;0.63;;;;;;;25.99;47.79;101504.03;4984811;28;20561;-71
2022/06/20 10:18:07;;;;;;;2.03;0.60;;;;;;;26.46;48.23;101501.22;4983978;28;20026;-69
2022/06/20 10:21:01;;;;;;;1.88;0.68;;;;;;;27.31;45.34;101493.31;4953010;28;20102;-70
2022/06/20 10:24:02;;;;;;;1.08;0.30;;;;;;;26.98;45.29;101503.03;4951773;28;20458;-70
2022/06/20 10:26:46;;;;;;;6.32;0.68;;;;;;;27.03;45.59;101514.78;4953372;28;20034;-71
2022/06/20 10:29:31;;;;;;;4.32;0.50;;;;;;;27.22;44.66;101507.28;4957051;28;20042;-71
2022/06/20 10:32:16;;;;;;;1.83;0.60;;;;;;;27.53;45.65;101515.91;4937395;28;20034;-71
2022/06/20 10:34:47;;;;;;;1.20;0.70;;;;;;;28.54;43.52;101522.22;4947212;28;20110;-71
2022/06/20 10:37:12;;;;;;;1.30;0.47;;;;;;;28.52;41.50;101520.56;4938347;28;20031;-71
2022/06/20 10:39:41;;;;;;;1.80;0.47;;;;;;;28.23;43.14;101522.63;4956700;28;20045;-71
2022/06/20 10:42:30;;;;;;;2.22;0.95;;;;;;;28.91;43.69;101525.03;4953320;28;20838;-70
2022/06/20 10:45:01;;;;;;;0.80;0.40;;;;;;;28.42;43.35;101531.28;4959366;28;20127;-70
2022/06/20 10:47:57;;;;;;;3.75;0.75;;;;;;;27.90;42.71;101527.06;4973907;28;20636;-70
2022/06/20 10:50:38;;;;;;;2.45;0.80;;;;;;;27.56;44.56;101530.84;4984139;28;20042;-70
2022/06/20 10:53:14;;;;;;;5.65;0.93;;;;;;;27.37;45.08;101531.13;4983256;28;20112;-70
2022/06/20 10:55:55;;;;;;;1.38;0.50;;;;;;;26.73;45.91;101523.16;4969444;28;20026;-71
2022/06/20 10:58:41;;;;;;;1.60;0.60;;;;;;;27.17;44.88;101536.16;5046645;28;20028;-70
2022/06/20 11:01:23;;;;;;;2.13;0.40;;;;;;;27.53;45.40;101542.22;5046804;28;20104;-70
2022/06/20 11:04:24;;;;;;;1.77;0.68;;;;;;;28.31;44.04;101549.34;5035106;28;20457;-71
2022/06/20 11:07:02;;;;;;;1.25;0.50;;;;;;;28.98;43.42;101535.72;5004897;28;20034;-70
2022/06/20 11:09:39;;;;;;;4.43;0.85;;;;;;;29.78;41.24;101538.59;5004884;28;20053;-70
2022/06/20 11:12:31;;;;;;;2.60;0.40;;;;;;;30.11;42.78;101545.59;5003752;28;20033;-70
2022/06/20 11:15:09;;;;;;;1.58;0.65;;;;;;;30.72;40.62;101534.13;4986788;28;20619;-70
2022/06/20 11:17:47;;;;;;;2.88;0.63;;;;;;;30.32;40.15;101539.19;5004468;28;20034;-70
2022/06/20 11:20:24;;;;;;;0.77;0.43;;;;;;;30.40;40.49;101550.66;5004119;28;20026;-70
2022/06/20 11:22:56;;;;;;;1.80;0.50;;;;;;;29.58;40.42;101561.00;5004237;28;20034;-70
2022/06/20 11:25:27;;;;;;;1.58;0.43;;;;;;;29.61;41.36;101557.75;5005176;28;20626;-70
2022/06/20 11:28:13;;;;;;;1.10;0.50;;;;;;;30.16;41.08;101570.13;5004954;28;20034;-70
2022/06/20 11:31:07;;;;;;;1.33;0.43;;;;;;;29.29;41.42;101555.88;5004157;28;20046;-70
2022/06/20 11:34:01;;;;;;;1.13;0.60;;;;;;;29.04;41.84;101549.09;4987707;28;20038;-69
2022/06/20 11:36:47;;;;;;;1.33;0.70;;;;;;;28.92;42.16;101564.75;5001598;28;20022;-71
2022/06/20 11:39:27;;;;;;;2.72;0.70;;;;;;;28.34;43.87;101574.34;5004489;28;20529;-71
2022/06/20 11:42:31;;;;;;;3.70;0.88;;;;;;;28.75;43.33;101577.59;5063785;28;20040;-71
2022/06/20 11:45:07;;;;;;;2.00;0.82;;;;;;;28.21;43.37;101580.94;5056549;28;20067;-71
2022/06/20 11:47:55;;;;;;;4.22;0.90;;;;;;;28.41;42.42;101543.19;5070510;28;20025;-71
2022/06/20 11:50:36;;;;;;;1.85;0.45;;;;;;;28.76;42.00;101577.31;5068550;28;20389;-70
2022/06/20 11:53:40;;;;;;;2.38;0.65;;;;;;;28.75;41.05;101580.31;5070839;28;20032;-70
2022/06/20 11:56:05;;;;;;;0.95;0.68;;;;;;;28.04;42.21;101575.53;5005120;28;20029;-70
2022/06/20 11:59:01;;;;;;;0.50;0.40;;;;;;;27.44;43.62;101571.63;4992469;28;20034;-71
2022/06/20 12:01:37;;;;;;;1.80;0.52;;;;;;;27.86;44.03;101577.47;5006662;28;20021;-71
2022/06/20 12:04:20;;;;;;;2.05;0.50;;;;;;;27.41;43.92;101575.63;5005500;28;20366;-70
2022/06/20 12:07:00;;;;;;;2.33;0.47;;;;;;;26.73;45.21;101566.47;5006914;28;20564;-71
2022/06/20 12:09:44;;;;;;;3.92;0.70;;;;;;;26.94;44.87;101588.56;5007526;28;20641;-70
2022/06/20 12:12:25;;;;;;;2.42;0.88;;;;;;;26.38;46.42;101575.47;5007318;28;20057;-70
2022/06/20 12:15:00;;;;;;;;;;;;;;;26.41;46.40;101574.19;5006110;28;20030;-70
2022/06/20 12:17:48;;;;;;;0.73;0.45;;;;;;;26.10;47.23;101581.63;5007562;28;19909;-70
2022/06/20 12:23:21;;;;;;;4.03;0.80;;;;;;;24.43;51.70;101586.66;5008727;28;20117;-70
2022/06/20 12:26:21;;;;;;;0.90;0.50;;;;;;;24.05;53.01;101577.91;5006758;28;20518;-70